createdAt,value
2019-02-14T00:00:25.801Z,18.43
2019-02-14T00:02:53.382Z,17.30
2019-02-14T00:05:20.881Z,16.43
2019-02-14T00:07:48.481Z,18.07
2019-02-14T00:10:16.074Z,16.50
2019-02-14T00:12:43.689Z,14.73
2019-02-14T00:15:11.389Z,17.50
2019-02-14T00:17:38.954Z,17.47
2019-02-14T00:20:07.181Z,19.93
2019-02-14T00:22:34.850Z,17.17
2019-02-14T00:25:02.416Z,17.60
2019-02-14T00:27:30.089Z,13.73
2019-02-14T00:29:57.649Z,15.23
2019-02-14T00:32:25.301Z,15.43
2019-02-14T00:34:52.809Z,12.83
2019-02-14T00:37:20.381Z,12.77
2019-02-14T00:39:47.942Z,13.50
2019-02-14T00:42:15.542Z,16.07
2019-02-14T00:44:43.021Z,12.97
2019-02-14T00:47:10.630Z,17.67
2019-02-14T00:49:38.181Z,15.60
2019-02-14T00:52:05.721Z,16.73
2019-02-14T00:54:33.341Z,13.03
2019-02-14T00:57:00.929Z,14.90
2019-02-14T00:59:28.581Z,20.07
2019-02-14T01:01:56.621Z,18.27
2019-02-14T01:04:24.161Z,16.53
2019-02-14T01:06:51.729Z,15.07
2019-02-14T01:09:19.321Z,16.90
2019-02-14T01:11:46.873Z,15.00
2019-02-14T01:14:14.682Z,14.20
2019-02-14T01:16:42.252Z,17.87
2019-02-14T01:19:09.824Z,15.33
2019-02-14T01:21:37.321Z,19.13
2019-02-14T01:24:04.923Z,14.57
2019-02-14T01:26:32.421Z,14.53
2019-02-14T01:29:00.081Z,14.83
2019-02-14T01:31:27.620Z,15.47
2019-02-14T01:33:55.229Z,14.17
2019-02-14T01:36:22.781Z,15.57
2019-02-14T01:38:50.381Z,13.07
2019-02-14T01:41:17.961Z,15.93
2019-02-14T01:43:45.520Z,15.43
2019-02-14T01:46:13.162Z,12.53
2019-02-14T01:48:40.829Z,15.93
2019-02-14T01:51:08.349Z,14.97
2019-02-14T01:53:35.949Z,17.77
2019-02-14T01:56:03.870Z,12.57
2019-02-14T01:58:31.411Z,16.40
2019-02-14T02:00:59.093Z,14.63
2019-02-14T02:03:26.643Z,14.43
2019-02-14T02:05:54.371Z,15.50
2019-02-14T02:08:22.091Z,15.37
2019-02-14T02:10:49.686Z,13.37
2019-02-14T02:13:17.384Z,11.70
2019-02-14T02:15:45.331Z,12.83
2019-02-14T02:18:13.043Z,13.40
2019-02-14T02:20:40.885Z,13.13
2019-02-14T02:23:08.412Z,11.40
2019-02-14T02:25:35.932Z,10.00
2019-02-14T02:28:03.672Z,15.47
2019-02-14T02:30:31.293Z,11.77
2019-02-14T02:32:58.905Z,13.23
2019-02-14T02:35:26.563Z,11.13
2019-02-14T02:37:56.603Z,12.60
2019-02-14T02:40:24.203Z,13.30
2019-02-14T02:42:52.405Z,10.93
2019-02-14T02:45:20.001Z,11.10
2019-02-14T02:47:47.550Z,11.00
2019-02-14T02:50:15.089Z,10.20
2019-02-14T02:52:43.772Z,12.70
2019-02-14T02:55:11.380Z,11.43
2019-02-14T02:57:38.965Z,11.17
2019-02-14T03:00:10.721Z,14.77
2019-02-14T03:02:38.269Z,12.10
2019-02-14T03:05:06.563Z,11.20
2019-02-14T03:07:34.063Z,9.70
2019-02-14T03:10:01.631Z,13.07
2019-02-14T03:12:29.263Z,11.77
2019-02-14T03:14:57.881Z,12.17
2019-02-14T03:17:25.421Z,10.93
2019-02-14T03:19:53.043Z,11.13
2019-02-14T03:22:20.569Z,12.33
2019-02-14T03:24:48.260Z,11.77
2019-02-14T03:27:15.821Z,13.93
2019-02-14T03:29:43.401Z,12.53
2019-02-14T03:32:10.983Z,13.40
2019-02-14T03:34:38.569Z,15.03
2019-02-14T03:37:06.131Z,14.33
2019-02-14T03:39:34.741Z,16.03
2019-02-14T03:42:02.302Z,13.93
2019-02-14T03:44:29.933Z,13.70
2019-02-14T03:46:57.521Z,14.87
2019-02-14T03:49:25.201Z,13.07
2019-02-14T03:51:52.761Z,14.23
2019-02-14T03:54:20.470Z,14.73
2019-02-14T03:56:48.089Z,13.90
2019-02-14T03:59:15.624Z,13.03
2019-02-14T04:01:43.169Z,13.77
2019-02-14T04:04:10.701Z,12.60
2019-02-14T04:06:38.303Z,13.50
2019-02-14T04:09:07.249Z,14.00
2019-02-14T04:11:34.870Z,12.00
2019-02-14T04:14:02.530Z,16.50
2019-02-14T04:16:30.189Z,13.30
2019-02-14T04:18:57.748Z,16.57
2019-02-14T04:21:25.381Z,14.03
2019-02-14T04:23:52.969Z,13.17
2019-02-14T04:26:20.552Z,14.37
2019-02-14T04:28:48.081Z,16.57
2019-02-14T04:31:15.669Z,12.77
2019-02-14T04:33:43.181Z,13.90
2019-02-14T04:36:10.849Z,12.63
2019-02-14T04:38:38.381Z,14.03
2019-02-14T04:41:05.968Z,13.07
2019-02-14T04:43:33.581Z,13.03
2019-02-14T04:46:01.169Z,15.30
2019-02-14T04:48:28.749Z,14.13
2019-02-14T04:50:56.371Z,15.03
2019-02-14T04:53:23.925Z,13.07
2019-02-14T04:55:51.469Z,15.03
2019-02-14T04:58:19.161Z,10.60
2019-02-14T05:00:46.670Z,10.60
2019-02-14T05:03:14.289Z,12.97
2019-02-14T05:05:41.829Z,10.10
2019-02-14T05:08:09.452Z,10.90
2019-02-14T05:10:37.003Z,12.77
2019-02-14T05:13:04.601Z,8.23
2019-02-14T05:15:32.402Z,6.93
2019-02-14T05:17:59.949Z,11.77
2019-02-14T05:20:27.461Z,9.83
2019-02-14T05:22:55.030Z,12.60
2019-02-14T05:25:22.615Z,9.37
2019-02-14T05:27:50.141Z,11.07
2019-02-14T05:30:17.689Z,12.63
2019-02-14T05:32:45.309Z,13.23
2019-02-14T05:35:12.973Z,12.33
2019-02-14T05:37:40.416Z,14.40
2019-02-14T05:40:08.249Z,16.10
2019-02-14T05:42:35.683Z,13.30
2019-02-14T05:45:03.218Z,13.90
2019-02-14T05:47:30.672Z,15.37
2019-02-14T05:49:58.023Z,15.33
2019-02-14T05:52:25.462Z,13.03
2019-02-14T05:54:52.831Z,14.83
2019-02-14T05:57:20.273Z,14.17
2019-02-14T05:59:47.654Z,14.87
2019-02-14T06:02:16.964Z,15.03
2019-02-14T06:04:44.331Z,14.83
2019-02-14T06:07:17.774Z,14.53
2019-02-14T06:46:39.001Z,17.63
2019-02-14T20:22:23.648Z,10.07
2019-02-14T20:33:03.888Z,12.33
2019-02-14T20:42:37.668Z,12.60
2019-02-14T20:45:06.327Z,11.03
2019-02-14T20:47:43.788Z,11.33
2019-02-14T20:50:12.134Z,12.20
2019-02-14T20:52:43.937Z,15.17
2019-02-14T20:55:20.761Z,11.13
2019-02-14T20:57:48.689Z,13.93
2019-02-14T21:00:29.946Z,9.23
2019-02-14T21:02:58.049Z,9.87
2019-02-14T21:05:26.099Z,9.07
2019-02-14T21:07:54.104Z,10.60
2019-02-14T21:10:22.338Z,11.70
2019-02-14T21:12:50.824Z,13.47
2019-02-14T21:15:18.882Z,11.93
2019-02-14T21:17:46.881Z,11.53
2019-02-14T21:20:14.991Z,10.37
2019-02-14T21:22:43.291Z,12.13
2019-02-14T21:25:22.073Z,10.67
2019-02-14T21:27:54.223Z,11.27
2019-02-14T21:30:25.118Z,11.90
2019-02-14T21:33:11.995Z,12.67
2019-02-14T21:35:42.786Z,11.80
2019-02-14T21:38:10.775Z,11.30
2019-02-14T21:40:38.545Z,16.60
2019-02-14T21:43:06.450Z,11.47
2019-02-14T21:45:34.530Z,13.03
2019-02-14T21:48:02.821Z,11.83
2019-02-14T21:50:30.373Z,12.73
2019-02-14T21:52:58.197Z,13.63
2019-02-14T21:55:31.169Z,10.47
2019-02-14T21:57:58.690Z,11.80
2019-02-14T22:00:26.317Z,8.67
2019-02-14T22:02:53.889Z,9.97
2019-02-14T22:05:25.253Z,9.67
2019-02-14T22:07:50.802Z,11.10
2019-02-14T22:10:18.201Z,9.80
2019-02-14T22:12:45.697Z,11.37
2019-02-14T22:15:14.306Z,8.97
2019-02-14T22:17:42.242Z,9.70
2019-02-14T22:20:09.771Z,10.80
2019-02-14T22:22:37.231Z,10.67
2019-02-14T22:25:04.904Z,9.90
2019-02-14T22:27:32.356Z,8.57
2019-02-14T22:29:59.851Z,10.50
2019-02-14T22:32:27.344Z,8.90
2019-02-14T22:34:54.734Z,8.93
2019-02-14T22:37:22.181Z,12.33
2019-02-14T22:39:49.555Z,10.27
2019-02-14T22:42:16.950Z,9.30
2019-02-14T22:44:44.407Z,10.73
2019-02-14T22:47:11.816Z,8.93
2019-02-14T22:49:39.240Z,7.67
2019-02-14T22:52:06.630Z,9.77
2019-02-14T22:54:34.061Z,10.10
2019-02-14T22:57:01.425Z,12.40
2019-02-14T22:59:28.895Z,8.63
2019-02-14T23:01:56.309Z,10.33
2019-02-14T23:04:23.873Z,9.33
2019-02-14T23:06:51.255Z,7.97
2019-02-14T23:09:18.806Z,9.33
2019-02-14T23:11:46.186Z,10.07
2019-02-14T23:14:13.636Z,10.10
2019-02-14T23:16:41.101Z,8.77
2019-02-14T23:19:08.631Z,9.97
2019-02-14T23:21:36.046Z,11.13
2019-02-14T23:24:03.500Z,9.47
2019-02-14T23:26:30.893Z,8.53
2019-02-14T23:28:58.772Z,10.30
2019-02-14T23:31:26.200Z,10.10
2019-02-14T23:33:53.616Z,11.63
2019-02-14T23:36:21.023Z,9.70
2019-02-14T23:38:48.475Z,11.37
2019-02-14T23:41:15.871Z,6.93
2019-02-14T23:43:43.400Z,6.90
2019-02-14T23:46:11.306Z,7.80
2019-02-14T23:48:39.644Z,9.47
2019-02-14T23:51:07.129Z,9.60
2019-02-14T23:53:34.705Z,7.17
2019-02-14T23:56:02.153Z,6.43
2019-02-14T23:58:29.690Z,7.30
